Berkeley, CA (94701)

5:45 AM PDT on May 29, 2017 (GMT -0700)
Berkeley Hills | | Change Station

Elev 446 ft 37.88 °N, 122.26 °W | Updated 20 seconds ago

Overcast
Overcast
50.9 °F
Feels Like 50.9 °F
N
0.0
Wind Variable Wind from South

Today
High -- | Low -- °F
--% Chance of Precip.
Yesterday
High -- | Low -- °F
Precip. -- in
Pressure 30.01 in
Visibility 10.0 miles
Clouds Overcast 600 ft
Dew Point 48 °F
Humidity 91%
Rainfall 0.00 in
Snow Depth Not available.
5:49 AM 8:23 PM
Waxing Crescent, 19% visible
METAR KOAK 291153Z 22009KT 10SM OVC006 13/11 A3001 RMK AO2 CIG 006V010 SLP163 T01280106 10139 20128 58005
Pressure 30.01 in
Visibility 10.0 miles
Clouds Overcast 600 ft
Dew Point 48 °F
Humidity 91%
Rainfall 0.00 in
Snow Depth Not available.
5:49 AM 8:23 PM
Waxing Crescent, 19% visible
METAR KOAK 291153Z 22009KT 10SM OVC006 13/11 A3001 RMK AO2 CIG 006V010 SLP163 T01280106 10139 20128 58005

Get Severe Weather Alerts

Thanks for signing up!

Be on the lookout for a verification email in your inbox.

You'll start receiving the daily forecast at 6 AM.

×

10-Day Weather Forecast

Almanac

Astronomy

May. 29, 2017 Rise Set
Actual Time
Civil Twilight
Nautical Twilight
Astronomical Twilight
Moon
Length of Visible Light
Length of Day
Tomorrow will be .
, % of the Moon is Illuminated

Today's Extremes

State Highs State Lows

Community

WunderPhotos

Category 6

Welcome to Category 6. This is the collective home for Weather Underground's featured writeups by Dr. Jeff Masters (right), Bob Henson (left), Chris Burt, and other regular contributors.

Nearby

Air Quality

  Air Quality AQ Index Pollutant
Not available.

Snow Depth

Station Depth Elevation

Earthquake Activity

City Distance Mag. Time & Date
Minimum magnitude displayed is 2.5.

Coastal Water Temperatures

Place Temperature

Stations

Nearby Weather Stations

Station Location Temp. Windchill Dew Point Humidity Wind Precip. Elev Updated Type
                   

Watches & Warnings

There are currently no watches in effect.